This is the latest recevied weather packets stored in our database for station/object K4KMJ. If no packets are shown the sender has not sent any weather packets the latest 1 day(s).
| Time | Temp. | Humidity | Pressure | Rain* | Wind** | Luminosity | Snow |
|---|---|---|---|---|---|---|---|
| 1778079210 | 28.89° C | 73% | 1019.3 hPa | 0 mm | - | 711 W/m² | - |
| 1778078603 | 27.78° C | 76% | 1019.6 hPa | 0 mm | - | 605 W/m² | - |
| 1778078302 | 27.22° C | 77% | 1019.5 hPa | 0 mm | - | 654 W/m² | - |
| 1778077998 | 27.78° C | 78% | 1019.7 hPa | 0 mm | - | 650 W/m² | - |
| 1778076790 | 26.67° C | 83% | 1019.5 hPa | 0 mm | - | 540 W/m² | - |
| 1778076488 | 26.67° C | 84% | 1019.4 hPa | 0 mm | - | 505 W/m² | - |
| 1778074668 | 25.56° C | 90% | 1019.5 hPa | 0 mm | - | 303 W/m² | - |
| 1778074061 | 25° C | 93% | 1019.4 hPa | 0 mm | - | 417 W/m² | - |
| 1778071942 | 22.22° C | 98% | 1019.2 hPa | 0 mm | - | 206 W/m² | - |
| 1778071640 | 22.22° C | 99% | 1019 hPa | 0 mm | - | 176 W/m² | - |
| 1778069825 | 20° C | 99% | 1018.7 hPa | 0 mm | - | 142 W/m² | - |
| 1778069219 | 20° C | 99% | 1018.6 hPa | 0 mm | - | 123 W/m² | - |
| 1778068009 | 18.89° C | 99% | 1018.5 hPa | 0 mm | - | 52 W/m² | - |
| 1778067707 | 17.78° C | 99% | 1018.5 hPa | 0 mm | - | 90 W/m² | - |
| 1778066798 | 16.67° C | 99% | 1018.7 hPa | 0 mm | - | 57 W/m² | - |
| 1778066194 | 16.11° C | 99% | 1018.6 hPa | 0 mm | - | 39 W/m² | - |
| 1778065286 | 15.56° C | 99% | 1018 hPa | 0 mm | - | 16 W/m² | - |
| 1778064982 | 15.56° C | 99% | 1018.2 hPa | 0 mm | - | 13 W/m² | - |
| 1778063772 | 15.56° C | 99% | 1017.9 hPa | 0 mm | - | 1 W/m² | - |
| 1778063167 | 15.56° C | 99% | 1017.9 hPa | 0 mm | - | 0 W/m² | - |
| 1778061956 | 15.56° C | 99% | 1018.1 hPa | 0 mm | - | 0 W/m² | - |
| 1778061352 | 15.56° C | 99% | 1018.1 hPa | 0 mm | - | 0 W/m² | - |
| 1778061048 | 15.56° C | 99% | 1017.8 hPa | 0 mm | - | 0 W/m² | - |
| 1778060746 | 15.56° C | 99% | 1017.6 hPa | 0 mm | - | 0 W/m² | - |
| 1778060142 | 15.56° C | 99% | 1018 hPa | 0 mm | - | 0 W/m² | - |
* Rain latest hour (hover to see other rain measurements)
** Current wind speed in m/s (hover to see current wind gust speed)